sensor_id;sensor_type;location;lat;lon;timestamp;pressure;altitude;pressure_sealevel;temperature;humidity
40245;BME280;25963;42.694;23.600;2023-07-09T00:01:41;95599.34;;;17.75;100.00
40245;BME280;25963;42.694;23.600;2023-07-09T00:04:11;95598.78;;;17.73;100.00
40245;BME280;25963;42.694;23.600;2023-07-09T00:06:38;95562.06;;;17.31;100.00
40245;BME280;25963;42.694;23.600;2023-07-09T00:09:04;95575.84;;;17.23;100.00
40245;BME280;25963;42.694;23.600;2023-07-09T00:11:30;95605.91;;;17.41;100.00
40245;BME280;25963;42.694;23.600;2023-07-09T00:13:55;95600.56;;;17.41;100.00
40245;BME280;25963;42.694;23.600;2023-07-09T00:16:24;95590.28;;;17.27;100.00
40245;BME280;25963;42.694;23.600;2023-07-09T00:18:50;95592.97;;;17.27;100.00
40245;BME280;25963;42.694;23.600;2023-07-09T00:21:17;95596.53;;;17.16;100.00
40245;BME280;25963;42.694;23.600;2023-07-09T00:23:43;95589.84;;;16.92;100.00
40245;BME280;25963;42.694;23.600;2023-07-09T00:26:12;95595.53;;;16.78;100.00
40245;BME280;25963;42.694;23.600;2023-07-09T00:28:39;95597.63;;;16.76;100.00
40245;BME280;25963;42.694;23.600;2023-07-09T00:31:10;95591.41;;;16.87;100.00
40245;BME280;25963;42.694;23.600;2023-07-09T00:33:36;95591.31;;;16.82;100.00
40245;BME280;25963;42.694;23.600;2023-07-09T00:36:10;95594.72;;;16.78;100.00
40245;BME280;25963;42.694;23.600;2023-07-09T00:38:36;95594.97;;;16.76;100.00
40245;BME280;25963;42.694;23.600;2023-07-09T00:41:05;95597.63;;;16.76;100.00
40245;BME280;25963;42.694;23.600;2023-07-09T00:43:34;95599.50;;;16.76;100.00
40245;BME280;25963;42.694;23.600;2023-07-09T00:48:56;95569.34;;;16.36;100.00
40245;BME280;25963;42.694;23.600;2023-07-09T00:51:25;95593.47;;;16.69;100.00
40245;BME280;25963;42.694;23.600;2023-07-09T00:53:54;95593.44;;;16.63;100.00
40245;BME280;25963;42.694;23.600;2023-07-09T00:56:33;95576.97;;;16.50;100.00
40245;BME280;25963;42.694;23.600;2023-07-09T00:59:07;95588.41;;;16.67;100.00
40245;BME280;25963;42.694;23.600;2023-07-09T01:01:34;95587.34;;;16.68;100.00
40245;BME280;25963;42.694;23.600;2023-07-09T01:04:00;95599.47;;;16.59;100.00
40245;BME280;25963;42.694;23.600;2023-07-09T01:06:32;95590.59;;;16.53;100.00
40245;BME280;25963;42.694;23.600;2023-07-09T01:09:00;95581.34;;;16.39;100.00
40245;BME280;25963;42.694;23.600;2023-07-09T01:11:27;95582.16;;;16.39;100.00
40245;BME280;25963;42.694;23.600;2023-07-09T01:13:56;95548.75;;;16.15;100.00
40245;BME280;25963;42.694;23.600;2023-07-09T01:16:25;95580.84;;;16.42;100.00
40245;BME280;25963;42.694;23.600;2023-07-09T01:18:52;95591.00;;;16.45;100.00
40245;BME280;25963;42.694;23.600;2023-07-09T01:21:19;95591.34;;;16.32;100.00
40245;BME280;25963;42.694;23.600;2023-07-09T01:23:47;95596.50;;;16.05;100.00
40245;BME280;25963;42.694;23.600;2023-07-09T01:26:16;95562.31;;;15.96;100.00
40245;BME280;25963;42.694;23.600;2023-07-09T01:28:42;95586.00;;;15.81;100.00
40245;BME280;25963;42.694;23.600;2023-07-09T01:31:12;95580.03;;;15.74;100.00
40245;BME280;25963;42.694;23.600;2023-07-09T01:33:39;95585.38;;;15.62;100.00
40245;BME280;25963;42.694;23.600;2023-07-09T01:36:09;95578.34;;;15.85;100.00
40245;BME280;25963;42.694;23.600;2023-07-09T01:38:35;95583.78;;;15.49;100.00
40245;BME280;25963;42.694;23.600;2023-07-09T01:41:01;95566.38;;;15.42;100.00
40245;BME280;25963;42.694;23.600;2023-07-09T01:43:27;95583.03;;;15.66;100.00
40245;BME280;25963;42.694;23.600;2023-07-09T01:45:53;95579.94;;;15.69;100.00
40245;BME280;25963;42.694;23.600;2023-07-09T01:48:23;95578.06;;;15.41;100.00
40245;BME280;25963;42.694;23.600;2023-07-09T01:50:50;95579.94;;;15.57;100.00
40245;BME280;25963;42.694;23.600;2023-07-09T01:53:18;95584.47;;;15.57;100.00
40245;BME280;25963;42.694;23.600;2023-07-09T01:55:44;95588.66;;;15.52;100.00
40245;BME280;25963;42.694;23.600;2023-07-09T01:58:10;95588.03;;;15.62;100.00
40245;BME280;25963;42.694;23.600;2023-07-09T02:00:37;95570.28;;;15.51;100.00
40245;BME280;25963;42.694;23.600;2023-07-09T02:03:03;95602.69;;;15.65;100.00
40245;BME280;25963;42.694;23.600;2023-07-09T02:05:31;95603.97;;;15.62;100.00
40245;BME280;25963;42.694;23.600;2023-07-09T02:07:58;95610.00;;;15.58;100.00
40245;BME280;25963;42.694;23.600;2023-07-09T02:10:23;95601.84;;;15.47;100.00
40245;BME280;25963;42.694;23.600;2023-07-09T02:12:49;95609.34;;;15.50;100.00
40245;BME280;25963;42.694;23.600;2023-07-09T02:15:15;95608.91;;;15.42;100.00
40245;BME280;25963;42.694;23.600;2023-07-09T02:17:41;95610.25;;;15.16;100.00
40245;BME280;25963;42.694;23.600;2023-07-09T02:20:08;95613.88;;;14.98;100.00
40245;BME280;25963;42.694;23.600;2023-07-09T02:22:34;95602.38;;;15.21;100.00
40245;BME280;25963;42.694;23.600;2023-07-09T02:25:00;95616.34;;;15.28;100.00
40245;BME280;25963;42.694;23.600;2023-07-09T02:27:26;95613.78;;;14.93;100.00
40245;BME280;25963;42.694;23.600;2023-07-09T02:29:51;95615.59;;;14.80;100.00
40245;BME280;25963;42.694;23.600;2023-07-09T02:32:22;95617.69;;;14.90;100.00
40245;BME280;25963;42.694;23.600;2023-07-09T02:34:48;95635.72;;;14.76;100.00
40245;BME280;25963;42.694;23.600;2023-07-09T02:37:15;95628.56;;;14.77;100.00
40245;BME280;25963;42.694;23.600;2023-07-09T02:39:42;95626.59;;;14.60;100.00
40245;BME280;25963;42.694;23.600;2023-07-09T02:42:12;95635.78;;;14.46;100.00
40245;BME280;25963;42.694;23.600;2023-07-09T02:44:39;95629.59;;;14.52;100.00
40245;BME280;25963;42.694;23.600;2023-07-09T02:47:05;95629.47;;;14.71;100.00
40245;BME280;25963;42.694;23.600;2023-07-09T02:49:30;95634.09;;;14.87;100.00
40245;BME280;25963;42.694;23.600;2023-07-09T02:51:56;95637.09;;;14.79;100.00
40245;BME280;25963;42.694;23.600;2023-07-09T02:54:21;95636.75;;;14.99;100.00
40245;BME280;25963;42.694;23.600;2023-07-09T02:56:46;95640.19;;;15.11;100.00
40245;BME280;25963;42.694;23.600;2023-07-09T02:59:12;95629.19;;;15.07;100.00
40245;BME280;25963;42.694;23.600;2023-07-09T03:01:38;95640.06;;;15.18;100.00
40245;BME280;25963;42.694;23.600;2023-07-09T03:04:03;95607.66;;;14.80;100.00
40245;BME280;25963;42.694;23.600;2023-07-09T03:06:30;95648.31;;;14.93;100.00
40245;BME280;25963;42.694;23.600;2023-07-09T03:08:58;95636.75;;;14.99;100.00
40245;BME280;25963;42.694;23.600;2023-07-09T03:11:24;95650.91;;;15.04;100.00
40245;BME280;25963;42.694;23.600;2023-07-09T03:13:49;95660.41;;;15.00;100.00
40245;BME280;25963;42.694;23.600;2023-07-09T03:16:15;95651.97;;;15.03;100.00
40245;BME280;25963;42.694;23.600;2023-07-09T03:18:41;95649.66;;;14.83;100.00
40245;BME280;25963;42.694;23.600;2023-07-09T03:21:07;95656.72;;;14.90;100.00
40245;BME280;25963;42.694;23.600;2023-07-09T03:23:33;95653.16;;;14.72;100.00
40245;BME280;25963;42.694;23.600;2023-07-09T03:25:58;95651.47;;;14.48;100.00
40245;BME280;25963;42.694;23.600;2023-07-09T03:28:25;95652.22;;;14.67;100.00
40245;BME280;25963;42.694;23.600;2023-07-09T03:30:54;95648.53;;;14.79;100.00
40245;BME280;25963;42.694;23.600;2023-07-09T03:33:19;95641.50;;;14.85;100.00
40245;BME280;25963;42.694;23.600;2023-07-09T03:35:45;95654.88;;;14.90;100.00
40245;BME280;25963;42.694;23.600;2023-07-09T03:38:11;95655.09;;;15.00;100.00
40245;BME280;25963;42.694;23.600;2023-07-09T03:40:37;95655.09;;;15.12;100.00
40245;BME280;25963;42.694;23.600;2023-07-09T03:43:06;95645.53;;;14.99;100.00
40245;BME280;25963;42.694;23.600;2023-07-09T03:45:34;95650.03;;;15.11;100.00
40245;BME280;25963;42.694;23.600;2023-07-09T03:48:00;95649.41;;;15.20;100.00
40245;BME280;25963;42.694;23.600;2023-07-09T03:50:25;95662.22;;;15.35;100.00
40245;BME280;25963;42.694;23.600;2023-07-09T03:52:51;95648.88;;;15.59;100.00
40245;BME280;25963;42.694;23.600;2023-07-09T03:55:17;95663.25;;;16.03;100.00
40245;BME280;25963;42.694;23.600;2023-07-09T03:57:42;95669.22;;;16.56;100.00
40245;BME280;25963;42.694;23.600;2023-07-09T04:00:08;95664.53;;;17.36;100.00
40245;BME280;25963;42.694;23.600;2023-07-09T04:02:39;95673.84;;;18.63;100.00
40245;BME280;25963;42.694;23.600;2023-07-09T04:05:05;95655.00;;;19.70;95.17
40245;BME280;25963;42.694;23.600;2023-07-09T04:07:31;95665.59;;;21.05;84.00
40245;BME280;25963;42.694;23.600;2023-07-09T04:09:56;95662.19;;;22.24;79.02
40245;BME280;25963;42.694;23.600;2023-07-09T04:12:21;95655.84;;;23.12;72.26
40245;BME280;25963;42.694;23.600;2023-07-09T04:14:47;95657.78;;;24.03;66.43
40245;BME280;25963;42.694;23.600;2023-07-09T04:17:12;95661.72;;;24.48;64.33
40245;BME280;25963;42.694;23.600;2023-07-09T04:19:58;95663.44;;;24.44;63.71
40245;BME280;25963;42.694;23.600;2023-07-09T04:22:24;95661.03;;;23.81;66.19
40245;BME280;25963;42.694;23.600;2023-07-09T04:24:49;95662.34;;;23.06;71.19
40245;BME280;25963;42.694;23.600;2023-07-09T04:27:16;95669.53;;;22.87;69.76
40245;BME280;25963;42.694;23.600;2023-07-09T04:29:41;95669.94;;;24.00;66.81
40245;BME280;25963;42.694;23.600;2023-07-09T04:32:08;95671.94;;;24.84;60.74
40245;BME280;25963;42.694;23.600;2023-07-09T04:34:36;95669.19;;;25.77;59.65
40245;BME280;25963;42.694;23.600;2023-07-09T04:37:05;95667.94;;;26.61;55.85
40245;BME280;25963;42.694;23.600;2023-07-09T04:39:31;95672.88;;;27.35;50.62
40245;BME280;25963;42.694;23.600;2023-07-09T04:41:57;95668.31;;;27.93;47.99
40245;BME280;25963;42.694;23.600;2023-07-09T04:44:22;95670.50;;;28.48;47.45
40245;BME280;25963;42.694;23.600;2023-07-09T04:46:48;95679.38;;;28.92;45.94
40245;BME280;25963;42.694;23.600;2023-07-09T04:49:14;95678.53;;;29.35;44.98
40245;BME280;25963;42.694;23.600;2023-07-09T04:51:40;95657.78;;;29.22;47.02
40245;BME280;25963;42.694;23.600;2023-07-09T04:54:05;95676.84;;;29.04;45.46
40245;BME280;25963;42.694;23.600;2023-07-09T04:56:31;95670.06;;;29.28;45.40
40245;BME280;25963;42.694;23.600;2023-07-09T04:58:56;95671.34;;;29.77;45.39
40245;BME280;25963;42.694;23.600;2023-07-09T05:01:22;95668.84;;;30.23;43.84
40245;BME280;25963;42.694;23.600;2023-07-09T05:03:47;95660.41;;;29.86;42.54
40245;BME280;25963;42.694;23.600;2023-07-09T05:06:13;95671.16;;;29.83;42.32
40245;BME280;25963;42.694;23.600;2023-07-09T05:08:39;95666.06;;;30.02;44.23
40245;BME280;25963;42.694;23.600;2023-07-09T05:11:04;95670.13;;;29.57;43.19
40245;BME280;25963;42.694;23.600;2023-07-09T05:13:29;95675.41;;;29.92;42.69
40245;BME280;25963;42.694;23.600;2023-07-09T05:15:55;95674.31;;;30.14;40.46
40245;BME280;25963;42.694;23.600;2023-07-09T05:18:20;95668.97;;;30.47;43.39
40245;BME280;25963;42.694;23.600;2023-07-09T05:20:47;95653.06;;;30.58;42.89
40245;BME280;25963;42.694;23.600;2023-07-09T05:23:13;95657.63;;;30.66;40.86
40245;BME280;25963;42.694;23.600;2023-07-09T05:25:38;95665.94;;;30.70;42.43
40245;BME280;25963;42.694;23.600;2023-07-09T05:28:04;95653.34;;;30.99;39.79
40245;BME280;25963;42.694;23.600;2023-07-09T05:30:30;95658.38;;;31.09;38.75
40245;BME280;25963;42.694;23.600;2023-07-09T05:32:56;95663.56;;;31.02;41.91
40245;BME280;25963;42.694;23.600;2023-07-09T05:35:26;95668.56;;;31.00;44.20
40245;BME280;25963;42.694;23.600;2023-07-09T05:37:55;95674.84;;;30.79;41.35
40245;BME280;25963;42.694;23.600;2023-07-09T05:40:21;95680.66;;;30.48;40.01
40245;BME280;25963;42.694;23.600;2023-07-09T05:42:47;95672.44;;;30.57;39.20
40245;BME280;25963;42.694;23.600;2023-07-09T05:45:14;95669.25;;;30.55;43.71
40245;BME280;25963;42.694;23.600;2023-07-09T05:47:39;95673.75;;;30.92;40.09
40245;BME280;25963;42.694;23.600;2023-07-09T05:50:05;95671.59;;;30.98;40.51
40245;BME280;25963;42.694;23.600;2023-07-09T05:52:31;95665.69;;;30.96;41.62
40245;BME280;25963;42.694;23.600;2023-07-09T05:54:56;95671.72;;;31.02;42.37
40245;BME280;25963;42.694;23.600;2023-07-09T05:57:22;95670.81;;;30.98;42.15
40245;BME280;25963;42.694;23.600;2023-07-09T05:59:47;95662.06;;;30.92;42.09
40245;BME280;25963;42.694;23.600;2023-07-09T06:02:15;95671.75;;;30.60;41.93
40245;BME280;25963;42.694;23.600;2023-07-09T06:04:41;95656.91;;;30.78;42.54
40245;BME280;25963;42.694;23.600;2023-07-09T06:07:08;95671.09;;;30.63;43.57
40245;BME280;25963;42.694;23.600;2023-07-09T06:09:34;95666.78;;;30.62;41.24
40245;BME280;25963;42.694;23.600;2023-07-09T06:12:01;95660.50;;;30.28;45.67
40245;BME280;25963;42.694;23.600;2023-07-09T06:14:27;95658.66;;;30.11;42.57
40245;BME280;25963;42.694;23.600;2023-07-09T06:16:52;95661.97;;;29.96;43.88
40245;BME280;25963;42.694;23.600;2023-07-09T06:19:18;95655.28;;;30.14;47.28
40245;BME280;25963;42.694;23.600;2023-07-09T06:21:43;95669.91;;;29.33;45.21
40245;BME280;25963;42.694;23.600;2023-07-09T06:24:09;95663.81;;;29.36;43.88
40245;BME280;25963;42.694;23.600;2023-07-09T06:26:34;95662.44;;;28.95;45.58
40245;BME280;25963;42.694;23.600;2023-07-09T06:29:00;95663.84;;;29.27;45.68
40245;BME280;25963;42.694;23.600;2023-07-09T06:31:25;95662.56;;;29.25;44.64
40245;BME280;25963;42.694;23.600;2023-07-09T06:33:51;95670.72;;;29.16;47.96
40245;BME280;25963;42.694;23.600;2023-07-09T06:36:17;95658.22;;;29.32;47.69
40245;BME280;25963;42.694;23.600;2023-07-09T06:38:43;95669.00;;;28.94;46.21
40245;BME280;25963;42.694;23.600;2023-07-09T06:41:10;95660.53;;;28.96;47.34
40245;BME280;25963;42.694;23.600;2023-07-09T06:43:36;95660.53;;;28.96;48.10
40245;BME280;25963;42.694;23.600;2023-07-09T06:46:06;95654.44;;;29.07;46.81
40245;BME280;25963;42.694;23.600;2023-07-09T06:48:32;95658.50;;;28.84;51.71
40245;BME280;25963;42.694;23.600;2023-07-09T06:50:59;95655.59;;;28.89;50.74
40245;BME280;25963;42.694;23.600;2023-07-09T06:53:25;95653.50;;;29.12;49.13
40245;BME280;25963;42.694;23.600;2023-07-09T06:55:51;95641.97;;;29.15;51.58
40245;BME280;25963;42.694;23.600;2023-07-09T06:58:25;95645.31;;;29.21;49.13
40245;BME280;25963;42.694;23.600;2023-07-09T07:00:53;95647.13;;;29.46;46.39
40245;BME280;25963;42.694;23.600;2023-07-09T07:03:19;95640.88;;;29.07;55.30
40245;BME280;25963;42.694;23.600;2023-07-09T07:05:46;95648.03;;;29.21;50.00
40245;BME280;25963;42.694;23.600;2023-07-09T07:08:13;95636.31;;;28.73;47.13
40245;BME280;25963;42.694;23.600;2023-07-09T07:10:40;95651.41;;;29.18;53.15
40245;BME280;25963;42.694;23.600;2023-07-09T07:13:06;95635.78;;;28.97;48.04
40245;BME280;25963;42.694;23.600;2023-07-09T07:15:31;95643.59;;;28.99;48.52
40245;BME280;25963;42.694;23.600;2023-07-09T07:17:57;95642.28;;;29.13;51.82
40245;BME280;25963;42.694;23.600;2023-07-09T07:20:23;95640.19;;;29.28;50.59
40245;BME280;25963;42.694;23.600;2023-07-09T07:22:49;95637.06;;;29.00;49.64
40245;BME280;25963;42.694;23.600;2023-07-09T07:25:14;95630.00;;;29.07;52.98
40245;BME280;25963;42.694;23.600;2023-07-09T07:27:40;95632.56;;;28.95;50.72
40245;BME280;25963;42.694;23.600;2023-07-09T07:30:06;95630.34;;;28.97;50.06
40245;BME280;25963;42.694;23.600;2023-07-09T07:32:35;95624.56;;;28.99;48.20
40245;BME280;25963;42.694;23.600;2023-07-09T07:35:01;95628.47;;;28.72;47.01
40245;BME280;25963;42.694;23.600;2023-07-09T07:37:27;95624.00;;;28.76;49.49
40245;BME280;25963;42.694;23.600;2023-07-09T07:39:52;95618.34;;;29.07;54.30
40245;BME280;25963;42.694;23.600;2023-07-09T07:42:18;95608.88;;;29.22;50.82
40245;BME280;25963;42.694;23.600;2023-07-09T07:44:44;95595.47;;;29.17;55.21
40245;BME280;25963;42.694;23.600;2023-07-09T07:47:10;95615.03;;;29.40;52.28
40245;BME280;25963;42.694;23.600;2023-07-09T07:49:37;95595.59;;;29.29;51.11
40245;BME280;25963;42.694;23.600;2023-07-09T07:52:03;95614.66;;;29.20;52.90
40245;BME280;25963;42.694;23.600;2023-07-09T07:54:29;95621.69;;;29.12;51.44
40245;BME280;25963;42.694;23.600;2023-07-09T07:56:55;95616.78;;;29.06;54.51
40245;BME280;25963;42.694;23.600;2023-07-09T07:59:20;95614.31;;;29.22;49.95
40245;BME280;25963;42.694;23.600;2023-07-09T08:01:46;95614.56;;;29.38;44.58
40245;BME280;25963;42.694;23.600;2023-07-09T08:04:11;95606.50;;;29.20;46.45
40245;BME280;25963;42.694;23.600;2023-07-09T08:06:37;95618.22;;;29.03;45.88
40245;BME280;25963;42.694;23.600;2023-07-09T08:09:02;95606.97;;;29.22;52.11
40245;BME280;25963;42.694;23.600;2023-07-09T08:11:28;95608.13;;;29.12;44.35
40245;BME280;25963;42.694;23.600;2023-07-09T08:13:55;95612.06;;;29.24;44.91
40245;BME280;25963;42.694;23.600;2023-07-09T08:16:20;95610.69;;;29.00;45.85
40245;BME280;25963;42.694;23.600;2023-07-09T08:18:46;95604.22;;;28.75;46.68
40245;BME280;25963;42.694;23.600;2023-07-09T08:21:11;95609.50;;;28.54;46.19
40245;BME280;25963;42.694;23.600;2023-07-09T08:23:37;95588.69;;;28.93;52.43
40245;BME280;25963;42.694;23.600;2023-07-09T08:26:04;95580.66;;;29.14;48.03
40245;BME280;25963;42.694;23.600;2023-07-09T08:28:30;95598.41;;;28.94;44.54
40245;BME280;25963;42.694;23.600;2023-07-09T08:30:56;95592.03;;;28.90;48.98
40245;BME280;25963;42.694;23.600;2023-07-09T08:33:22;95591.69;;;29.00;46.45
40245;BME280;25963;42.694;23.600;2023-07-09T08:35:52;95590.88;;;29.00;45.37
40245;BME280;25963;42.694;23.600;2023-07-09T08:38:18;95580.63;;;29.23;50.16
40245;BME280;25963;42.694;23.600;2023-07-09T08:41:09;95573.53;;;29.30;45.60
40245;BME280;25963;42.694;23.600;2023-07-09T08:46:21;95590.03;;;29.17;47.18
40245;BME280;25963;42.694;23.600;2023-07-09T08:48:51;95588.16;;;29.08;47.61
40245;BME280;25963;42.694;23.600;2023-07-09T08:54:04;95595.22;;;28.92;46.51
40245;BME280;25963;42.694;23.600;2023-07-09T08:56:34;95576.81;;;29.06;49.21
40245;BME280;25963;42.694;23.600;2023-07-09T08:59:02;95583.84;;;29.46;52.57
40245;BME280;25963;42.694;23.600;2023-07-09T09:04:04;95592.63;;;29.81;53.68
40245;BME280;25963;42.694;23.600;2023-07-09T09:06:31;95586.41;;;29.42;49.34
40245;BME280;25963;42.694;23.600;2023-07-09T09:12:13;95584.91;;;29.62;49.85
40245;BME280;25963;42.694;23.600;2023-07-09T09:14:46;95588.41;;;29.92;48.49
40245;BME280;25963;42.694;23.600;2023-07-09T09:17:18;95579.50;;;29.83;47.03
40245;BME280;25963;42.694;23.600;2023-07-09T09:19:59;95587.59;;;29.71;49.56
40245;BME280;25963;42.694;23.600;2023-07-09T09:22:33;95590.13;;;30.18;50.34
40245;BME280;25963;42.694;23.600;2023-07-09T09:27:46;95577.44;;;29.80;48.32
40245;BME280;25963;42.694;23.600;2023-07-09T09:30:14;95562.06;;;29.84;45.05
40245;BME280;25963;42.694;23.600;2023-07-09T09:32:50;95574.31;;;29.69;44.98
40245;BME280;25963;42.694;23.600;2023-07-09T09:35:19;95562.78;;;29.93;47.94
40245;BME280;25963;42.694;23.600;2023-07-09T09:37:54;95574.22;;;30.62;49.23
40245;BME280;25963;42.694;23.600;2023-07-09T09:40:20;95556.19;;;30.90;49.46
40245;BME280;25963;42.694;23.600;2023-07-09T09:42:49;95574.25;;;31.20;50.87
40245;BME280;25963;42.694;23.600;2023-07-09T09:45:20;95571.69;;;31.48;47.71
40245;BME280;25963;42.694;23.600;2023-07-09T09:47:47;95567.34;;;31.22;43.94
40245;BME280;25963;42.694;23.600;2023-07-09T09:50:21;95552.56;;;30.99;43.93
40245;BME280;25963;42.694;23.600;2023-07-09T09:52:48;95569.56;;;30.96;48.28
40245;BME280;25963;42.694;23.600;2023-07-09T09:55:24;95563.91;;;31.13;43.62
40245;BME280;25963;42.694;23.600;2023-07-09T09:57:52;95566.06;;;31.20;41.82
40245;BME280;25963;42.694;23.600;2023-07-09T10:00:22;95561.63;;;30.90;46.62
40245;BME280;25963;42.694;23.600;2023-07-09T10:02:48;95537.72;;;31.21;43.71
40245;BME280;25963;42.694;23.600;2023-07-09T10:05:15;95564.88;;;31.66;44.77
40245;BME280;25963;42.694;23.600;2023-07-09T10:10:30;95559.94;;;30.65;49.31
40245;BME280;25963;42.694;23.600;2023-07-09T10:16:14;95559.25;;;31.26;47.81
40245;BME280;25963;42.694;23.600;2023-07-09T10:19:04;95551.69;;;31.44;43.09
40245;BME280;25963;42.694;23.600;2023-07-09T10:24:23;95551.81;;;31.59;42.92
40245;BME280;25963;42.694;23.600;2023-07-09T10:40:10;95526.81;;;31.57;42.00
40245;BME280;25963;42.694;23.600;2023-07-09T10:42:44;95533.97;;;31.37;44.31
40245;BME280;25963;42.694;23.600;2023-07-09T10:45:13;95538.81;;;30.83;41.96
40245;BME280;25963;42.694;23.600;2023-07-09T10:47:43;95518.97;;;31.19;45.56
40245;BME280;25963;42.694;23.600;2023-07-09T10:50:18;95528.97;;;31.15;43.18
40245;BME280;25963;42.694;23.600;2023-07-09T10:52:51;95533.88;;;30.76;42.94
40245;BME280;25963;42.694;23.600;2023-07-09T10:55:33;95528.19;;;31.14;46.29
40245;BME280;25963;42.694;23.600;2023-07-09T10:58:10;95500.03;;;31.35;40.31
40245;BME280;25963;42.694;23.600;2023-07-09T11:00:41;95526.34;;;31.31;42.88
40245;BME280;25963;42.694;23.600;2023-07-09T11:03:19;95531.34;;;31.29;41.97
40245;BME280;25963;42.694;23.600;2023-07-09T11:05:49;95523.97;;;31.54;41.90
40245;BME280;25963;42.694;23.600;2023-07-09T11:08:18;95521.69;;;31.68;40.93
40245;BME280;25963;42.694;23.600;2023-07-09T11:10:52;95532.66;;;31.84;40.78
40245;BME280;25963;42.694;23.600;2023-07-09T11:13:33;95521.66;;;31.80;47.61
40245;BME280;25963;42.694;23.600;2023-07-09T11:16:01;95513.34;;;31.89;41.90
40245;BME280;25963;42.694;23.600;2023-07-09T11:18:31;95520.41;;;32.18;43.11
40245;BME280;25963;42.694;23.600;2023-07-09T11:21:05;95516.63;;;31.95;39.96
40245;BME280;25963;42.694;23.600;2023-07-09T11:23:47;95507.72;;;32.38;43.87
40245;BME280;25963;42.694;23.600;2023-07-09T11:31:39;95518.53;;;31.54;44.61
40245;BME280;25963;42.694;23.600;2023-07-09T11:34:08;95508.91;;;31.44;43.08
40245;BME280;25963;42.694;23.600;2023-07-09T11:36:45;95518.66;;;31.45;41.59
40245;BME280;25963;42.694;23.600;2023-07-09T11:39:41;95508.31;;;31.26;39.46
40245;BME280;25963;42.694;23.600;2023-07-09T11:42:27;95507.66;;;31.42;42.56
40245;BME280;25963;42.694;23.600;2023-07-09T11:44:58;95508.44;;;31.82;39.64
40245;BME280;25963;42.694;23.600;2023-07-09T11:47:37;95481.97;;;31.06;39.84
40245;BME280;25963;42.694;23.600;2023-07-09T11:50:25;95502.63;;;31.44;44.16
40245;BME280;25963;42.694;23.600;2023-07-09T11:53:01;95501.41;;;31.94;43.10
40245;BME280;25963;42.694;23.600;2023-07-09T11:55:39;95500.19;;;31.79;40.93
40245;BME280;25963;42.694;23.600;2023-07-09T11:58:06;95506.50;;;32.08;42.71
40245;BME280;25963;42.694;23.600;2023-07-09T12:00:41;95499.16;;;31.83;38.80
40245;BME280;25963;42.694;23.600;2023-07-09T12:03:14;95495.25;;;31.97;42.88
40245;BME280;25963;42.694;23.600;2023-07-09T12:05:41;95494.91;;;31.46;41.52
40245;BME280;25963;42.694;23.600;2023-07-09T12:08:12;95491.25;;;31.66;42.78
40245;BME280;25963;42.694;23.600;2023-07-09T12:10:41;95490.47;;;31.53;39.79
40245;BME280;25963;42.694;23.600;2023-07-09T12:13:09;95482.06;;;31.34;41.59
40245;BME280;25963;42.694;23.600;2023-07-09T12:15:39;95491.97;;;31.51;37.11
40245;BME280;25963;42.694;23.600;2023-07-09T12:18:11;95498.81;;;31.73;41.09
40245;BME280;25963;42.694;23.600;2023-07-09T12:20:37;95492.44;;;31.93;40.73
40245;BME280;25963;42.694;23.600;2023-07-09T12:23:11;95480.50;;;31.86;39.73
40245;BME280;25963;42.694;23.600;2023-07-09T12:25:47;95491.19;;;31.78;38.94
40245;BME280;25963;42.694;23.600;2023-07-09T12:28:15;95485.66;;;31.75;42.13
40245;BME280;25963;42.694;23.600;2023-07-09T12:30:50;95472.16;;;31.66;39.32
40245;BME280;25963;42.694;23.600;2023-07-09T12:33:27;95471.72;;;31.52;42.54
40245;BME280;25963;42.694;23.600;2023-07-09T12:35:58;95475.53;;;31.75;45.10
40245;BME280;25963;42.694;23.600;2023-07-09T12:38:26;95478.25;;;31.75;40.23
40245;BME280;25963;42.694;23.600;2023-07-09T12:40:53;95467.31;;;31.88;40.41
40245;BME280;25963;42.694;23.600;2023-07-09T12:43:25;95460.19;;;32.11;37.67
40245;BME280;25963;42.694;23.600;2023-07-09T12:45:56;95454.16;;;31.90;37.23
40245;BME280;25963;42.694;23.600;2023-07-09T12:48:24;95460.03;;;31.92;42.05
40245;BME280;25963;42.694;23.600;2023-07-09T12:50:51;95451.50;;;31.65;39.21
40245;BME280;25963;42.694;23.600;2023-07-09T12:53:20;95455.06;;;31.81;40.92
40245;BME280;25963;42.694;23.600;2023-07-09T12:55:51;95458.78;;;31.89;38.75
40245;BME280;25963;42.694;23.600;2023-07-09T12:58:22;95461.19;;;31.91;38.06
40245;BME280;25963;42.694;23.600;2023-07-09T13:00:51;95469.16;;;31.83;40.81
40245;BME280;25963;42.694;23.600;2023-07-09T13:03:19;95458.66;;;32.42;41.13
40245;BME280;25963;42.694;23.600;2023-07-09T13:08:56;95437.69;;;32.58;37.64
40245;BME280;25963;42.694;23.600;2023-07-09T13:11:22;95451.75;;;32.44;41.57
40245;BME280;25963;42.694;23.600;2023-07-09T13:13:57;95450.03;;;31.96;41.84
40245;BME280;25963;42.694;23.600;2023-07-09T13:16:24;95452.31;;;31.81;37.30
40245;BME280;25963;42.694;23.600;2023-07-09T13:18:49;95456.41;;;31.88;42.49
40245;BME280;25963;42.694;23.600;2023-07-09T13:21:20;95449.75;;;31.73;41.83
40245;BME280;25963;42.694;23.600;2023-07-09T13:23:45;95438.38;;;31.83;42.66
40245;BME280;25963;42.694;23.600;2023-07-09T13:26:13;95453.75;;;31.63;40.22
40245;BME280;25963;42.694;23.600;2023-07-09T13:28:38;95454.72;;;31.95;41.79
40245;BME280;25963;42.694;23.600;2023-07-09T13:31:10;95451.72;;;31.88;44.62
40245;BME280;25963;42.694;23.600;2023-07-09T13:33:37;95451.16;;;31.54;42.09
40245;BME280;25963;42.694;23.600;2023-07-09T13:36:03;95455.28;;;31.24;42.80
40245;BME280;25963;42.694;23.600;2023-07-09T13:38:29;95461.94;;;30.77;40.73
40245;BME280;25963;42.694;23.600;2023-07-09T13:40:57;95449.41;;;30.39;40.55